Time;durP1;ratioP1;P1;durP2;ratioP2;P2;SDS_P1;SDS_P2;PMS_P1;PMS_P2;Temp;Humidity;BMP_temperature;BMP_pressure;BME280_temperature;BME280_humidity;BME280_pressure;Samples;Min_cycle;Max_cycle;Signal;HPM_P1;HPM_P2
2022/11/14 00:02:08;;;;;;;22.83;12.07;;;6.30;99.90;;;;;;5024979;28;20488;-76
2022/11/14 00:04:34;;;;;;;21.17;12.85;;;6.30;99.90;;;;;;5014825;28;20464;-76
2022/11/14 00:07:00;;;;;;;17.75;13.35;;;6.30;99.90;;;;;;5005647;28;20033;-76
2022/11/14 00:09:27;;;;;;;26.20;12.80;;;6.30;99.90;;;;;;5005907;28;20046;-76
2022/11/14 00:11:53;;;;;;;18.88;13.00;;;6.30;99.90;;;;;;5002761;28;20038;-76
2022/11/14 00:14:18;;;;;;;24.00;14.85;;;6.40;99.90;;;;;;5004794;28;20050;-76
2022/11/14 00:16:44;;;;;;;27.48;13.70;;;6.30;99.90;;;;;;5015026;28;20052;-76
2022/11/14 00:19:09;;;;;;;33.25;14.20;;;6.40;99.90;;;;;;5024557;28;20496;-76
2022/11/14 00:21:35;;;;;;;22.17;12.77;;;6.40;99.90;;;;;;5024351;28;20111;-76
2022/11/14 00:24:01;;;;;;;22.58;14.00;;;6.40;99.90;;;;;;5023184;28;20133;-76
2022/11/14 00:26:26;;;;;;;24.20;14.23;;;6.40;99.90;;;;;;5011429;28;20034;-76
2022/11/14 00:28:53;;;;;;;22.45;12.98;;;6.40;99.90;;;;;;5004781;28;20072;-76
2022/11/14 00:31:19;;;;;;;23.33;12.23;;;6.40;99.90;;;;;;5004268;28;20416;-76
2022/11/14 00:33:45;;;;;;;17.30;13.20;;;6.40;99.90;;;;;;5005157;28;20100;-76
2022/11/14 00:36:11;;;;;;;20.27;13.35;;;6.50;99.90;;;;;;5004434;28;20037;-76
2022/11/14 00:38:36;;;;;;;18.13;12.18;;;6.40;99.90;;;;;;5003214;28;20438;-76
2022/11/14 00:41:02;;;;;;;24.50;15.23;;;6.40;99.90;;;;;;5003878;28;20041;-76
2022/11/14 00:43:28;;;;;;;24.45;12.52;;;6.50;99.90;;;;;;5005358;28;20053;-76
2022/11/14 00:45:53;;;;;;;22.88;12.80;;;6.50;99.90;;;;;;5023087;28;20447;-76
2022/11/14 00:48:19;;;;;;;26.02;12.23;;;6.50;99.90;;;;;;5022399;28;20307;-76
2022/11/14 00:50:44;;;;;;;35.50;14.02;;;6.50;99.90;;;;;;5023079;28;20399;-76
2022/11/14 00:53:11;;;;;;;27.23;13.98;;;6.50;99.90;;;;;;5024103;28;20396;-76
2022/11/14 00:55:36;;;;;;;23.60;12.98;;;6.60;99.90;;;;;;5021470;28;20077;-76
2022/11/14 00:58:02;;;;;;;21.38;14.30;;;6.60;99.90;;;;;;5022777;28;20073;-76
2022/11/14 01:00:28;;;;;;;21.77;13.93;;;6.60;99.90;;;;;;5023247;28;20506;-76
2022/11/14 01:02:57;;;;;;;24.48;12.93;;;6.60;99.90;;;;;;5022196;28;20523;-76
2022/11/14 01:05:25;;;;;;;28.23;13.95;;;6.60;99.90;;;;;;5021948;28;20566;-76
2022/11/14 01:07:51;;;;;;;27.38;13.48;;;6.60;99.90;;;;;;5021986;28;20184;-76
2022/11/14 01:10:17;;;;;;;21.23;11.05;;;6.60;99.90;;;;;;5022017;28;20511;-76
2022/11/14 01:12:43;;;;;;;22.13;13.95;;;6.70;99.90;;;;;;5022480;28;20046;-76
2022/11/14 01:15:09;;;;;;;22.30;13.93;;;6.60;99.90;;;;;;5021512;28;20081;-76
2022/11/14 01:17:34;;;;;;;25.92;12.95;;;6.70;99.90;;;;;;5023905;28;20492;-76
2022/11/14 01:20:00;;;;;;;20.65;12.07;;;6.70;99.90;;;;;;5023206;28;20095;-76
2022/11/14 01:22:25;;;;;;;26.95;14.25;;;6.70;99.90;;;;;;5021881;28;20073;-76
2022/11/14 01:24:51;;;;;;;18.85;11.93;;;6.70;99.90;;;;;;5021773;28;20049;-76
2022/11/14 01:27:17;;;;;;;25.52;12.55;;;6.80;99.90;;;;;;5002025;28;20050;-76
2022/11/14 01:29:42;;;;;;;21.45;13.23;;;6.80;99.90;;;;;;5002516;28;20042;-76
2022/11/14 01:32:08;;;;;;;21.20;14.93;;;6.80;99.90;;;;;;5002230;28;20065;-76
2022/11/14 01:34:33;;;;;;;23.08;12.10;;;6.80;99.90;;;;;;5003535;28;20500;-76
2022/11/14 01:36:59;;;;;;;21.27;13.00;;;6.80;99.90;;;;;;5003228;28;20205;-76
2022/11/14 01:39:28;;;;;;;19.35;12.55;;;6.80;99.90;;;;;;5003160;28;20045;-76
2022/11/14 01:41:54;;;;;;;24.25;14.00;;;6.80;99.90;;;;;;4986878;28;20050;-76
2022/11/14 01:44:44;;;;;;;20.30;13.45;;;6.80;99.90;;;;;;5003508;28;20053;-77
2022/11/14 01:47:11;;;;;;;21.23;13.10;;;6.80;99.90;;;;;;5003292;28;20431;-76
2022/11/14 01:49:41;;;;;;;22.98;12.15;;;6.80;99.90;;;;;;5003497;28;20097;-76
2022/11/14 01:52:27;;;;;;;24.85;12.35;;;6.90;99.90;;;;;;5002909;28;20086;-76
2022/11/14 01:55:00;;;;;;;23.58;10.52;;;6.90;99.90;;;;;;5001471;28;20607;-76
2022/11/14 01:57:33;;;;;;;23.15;13.93;;;6.90;99.90;;;;;;4986037;28;20465;-76
2022/11/14 02:00:05;;;;;;;16.92;11.35;;;6.90;99.90;;;;;;5003116;28;20104;-76
2022/11/14 02:02:30;;;;;;;24.70;12.23;;;6.90;99.90;;;;;;5003245;28;20104;-77
2022/11/14 02:05:09;;;;;;;29.00;12.85;;;6.90;99.90;;;;;;5003247;28;20085;-76
2022/11/14 02:07:37;;;;;;;18.13;12.52;;;6.90;99.90;;;;;;4985541;28;20041;-76
2022/11/14 02:10:15;;;;;;;20.20;13.30;;;6.90;99.90;;;;;;5076786;22;20523;-76
2022/11/14 02:12:41;;;;;;;18.20;11.82;;;6.90;99.90;;;;;;5004067;28;20053;-76
2022/11/14 02:15:09;;;;;;;22.65;13.73;;;6.90;99.90;;;;;;5004024;28;20045;-76
2022/11/14 02:17:34;;;;;;;17.98;12.38;;;6.90;99.90;;;;;;5003753;28;20065;-76
2022/11/14 02:20:09;;;;;;;14.52;10.63;;;6.90;99.90;;;;;;5002282;28;20088;-76
2022/11/14 02:22:36;;;;;;;19.05;11.80;;;7.00;99.90;;;;;;5003592;28;20046;-77
2022/11/14 02:25:01;;;;;;;23.45;13.98;;;6.90;99.90;;;;;;5002721;28;20135;-76
2022/11/14 02:27:28;;;;;;;17.75;10.80;;;6.90;99.90;;;;;;5003861;28;20070;-76
2022/11/14 02:29:53;;;;;;;18.98;13.90;;;7.00;99.90;;;;;;5004360;28;20049;-76
2022/11/14 02:32:19;;;;;;;18.63;11.70;;;7.00;99.90;;;;;;5001947;28;20550;-76
2022/11/14 02:34:44;;;;;;;25.83;14.07;;;7.00;99.90;;;;;;5002475;28;20041;-76
2022/11/14 02:37:10;;;;;;;26.00;16.63;;;7.00;99.90;;;;;;5003455;28;20092;-76
2022/11/14 02:39:36;;;;;;;41.00;15.57;;;7.00;99.90;;;;;;5002369;28;20427;-76
2022/11/14 02:42:01;;;;;;;23.58;15.18;;;7.00;99.90;;;;;;5003293;28;20042;-75
2022/11/14 02:44:27;;;;;;;29.65;16.33;;;7.00;99.90;;;;;;5004274;28;20650;-76
2022/11/14 02:46:53;;;;;;;18.23;12.32;;;7.00;99.90;;;;;;5002057;28;20046;-76
2022/11/14 02:49:19;;;;;;;16.30;11.63;;;7.00;99.90;;;;;;5003297;28;20072;-76
2022/11/14 02:51:44;;;;;;;26.50;15.15;;;7.00;99.90;;;;;;5002656;28;20050;-76
2022/11/14 02:54:10;;;;;;;19.80;15.23;;;7.00;99.90;;;;;;5003391;28;20041;-76
2022/11/14 02:56:36;;;;;;;16.77;13.90;;;7.00;99.90;;;;;;5002815;28;20045;-76
2022/11/14 02:59:01;;;;;;;26.40;15.43;;;7.00;99.90;;;;;;5002073;28;20053;-76
2022/11/14 03:01:27;;;;;;;26.38;16.10;;;7.00;99.90;;;;;;5004302;28;20500;-76
2022/11/14 03:03:52;;;;;;;29.10;15.35;;;6.90;99.90;;;;;;5002172;28;20116;-76
2022/11/14 03:06:18;;;;;;;26.20;14.57;;;6.90;99.90;;;;;;5001645;28;20456;-76
2022/11/14 03:08:43;;;;;;;27.55;18.25;;;6.90;99.90;;;;;;5002376;28;20058;-75
2022/11/14 03:11:09;;;;;;;24.10;13.93;;;6.90;99.90;;;;;;5002607;28;20068;-75
2022/11/14 03:13:35;;;;;;;23.73;16.42;;;6.90;99.90;;;;;;5003129;28;20516;-75
2022/11/14 03:16:10;;;;;;;25.95;15.55;;;6.90;99.90;;;;;;5002178;28;20042;-75
2022/11/14 03:18:36;;;;;;;26.05;15.23;;;6.90;99.90;;;;;;5001555;28;20045;-75
2022/11/14 03:21:10;;;;;;;25.33;16.48;;;6.90;99.90;;;;;;5003495;28;20049;-75
2022/11/14 03:23:36;;;;;;;33.58;18.20;;;6.90;99.90;;;;;;5003017;28;20077;-74
2022/11/14 03:26:04;;;;;;;29.67;16.15;;;6.90;99.90;;;;;;4993447;28;20401;-75
2022/11/14 03:28:29;;;;;;;26.30;16.30;;;6.90;99.90;;;;;;4983800;28;20057;-75
2022/11/14 03:30:55;;;;;;;24.92;15.70;;;6.90;99.90;;;;;;4985511;28;20046;-75
2022/11/14 03:33:20;;;;;;;28.92;16.42;;;6.90;99.90;;;;;;4987054;28;20081;-75
2022/11/14 03:35:48;;;;;;;28.20;18.52;;;6.90;99.90;;;;;;4987754;28;20141;-75
2022/11/14 03:38:14;;;;;;;30.67;19.83;;;6.80;99.90;;;;;;4986990;28;20038;-75
2022/11/14 03:40:40;;;;;;;26.55;16.45;;;6.90;99.90;;;;;;4986121;28;20094;-75
2022/11/14 03:43:05;;;;;;;36.53;18.70;;;6.90;99.90;;;;;;4986860;28;20046;-75
2022/11/14 03:45:31;;;;;;;27.98;20.23;;;6.90;99.90;;;;;;4986223;28;20428;-75
2022/11/14 03:47:56;;;;;;;32.80;20.13;;;6.90;99.90;;;;;;4987215;28;20042;-75
2022/11/14 03:50:22;;;;;;;31.63;20.13;;;6.90;99.90;;;;;;4986901;28;20064;-75
2022/11/14 03:52:49;;;;;;;41.80;22.92;;;6.90;99.90;;;;;;4993961;28;20125;-75
2022/11/14 03:55:14;;;;;;;37.53;21.08;;;6.90;99.90;;;;;;5005159;28;20046;-75
2022/11/14 03:57:40;;;;;;;33.88;23.23;;;6.90;99.90;;;;;;4988549;28;20068;-75
2022/11/14 04:00:06;;;;;;;41.72;22.65;;;6.90;99.90;;;;;;5005342;28;20068;-75
2022/11/14 04:02:32;;;;;;;33.95;21.42;;;6.90;99.90;;;;;;5004598;28;20042;-75
2022/11/14 04:04:57;;;;;;;33.58;19.95;;;6.90;99.90;;;;;;5005288;28;20140;-75
2022/11/14 04:07:23;;;;;;;33.05;24.27;;;6.90;99.90;;;;;;5006398;28;20042;-75
2022/11/14 04:09:50;;;;;;;33.60;22.95;;;6.90;99.90;;;;;;5004979;28;20133;-76
2022/11/14 04:12:16;;;;;;;39.83;21.65;;;6.90;99.90;;;;;;5005988;28;20432;-76
2022/11/14 04:14:42;;;;;;;30.48;20.77;;;6.90;99.90;;;;;;5006102;28;20042;-76
2022/11/14 04:17:08;;;;;;;37.85;22.98;;;6.90;99.90;;;;;;5006249;28;20058;-76
2022/11/14 04:19:33;;;;;;;34.15;20.88;;;6.90;99.90;;;;;;5024641;28;20033;-76
2022/11/14 04:21:59;;;;;;;35.30;20.50;;;6.90;99.90;;;;;;5025355;28;20042;-76
2022/11/14 04:24:24;;;;;;;40.63;22.23;;;6.90;99.90;;;;;;5024185;28;20041;-76
2022/11/14 04:26:50;;;;;;;39.50;23.95;;;6.90;99.90;;;;;;5022959;28;20389;-76
2022/11/14 04:29:15;;;;;;;42.58;23.98;;;6.90;99.90;;;;;;5025547;28;20537;-76
2022/11/14 04:31:41;;;;;;;39.47;21.55;;;6.90;99.90;;;;;;5024840;28;20044;-76
2022/11/14 04:34:07;;;;;;;41.13;25.33;;;6.90;99.90;;;;;;5007713;28;20053;-76
2022/11/14 04:36:32;;;;;;;37.10;23.33;;;6.90;99.90;;;;;;5025495;28;20044;-76
2022/11/14 04:38:58;;;;;;;37.83;24.13;;;6.90;99.90;;;;;;5024851;28;20496;-76
2022/11/14 04:41:23;;;;;;;26.83;22.13;;;6.90;99.90;;;;;;5023668;28;20517;-76
2022/11/14 04:43:49;;;;;;;36.13;22.92;;;6.90;99.90;;;;;;5006861;28;20052;-76
2022/11/14 04:46:15;;;;;;;45.55;25.27;;;6.90;99.90;;;;;;5007376;28;20045;-76
2022/11/14 04:48:40;;;;;;;49.10;24.92;;;6.90;99.90;;;;;;5025253;28;20132;-76
2022/11/14 04:51:06;;;;;;;33.60;20.80;;;6.90;99.90;;;;;;4994677;28;20041;-76
2022/11/14 04:53:32;;;;;;;31.15;21.50;;;6.90;99.90;;;;;;5005089;28;20618;-76
2022/11/14 04:55:57;;;;;;;37.85;22.55;;;6.90;99.90;;;;;;5005314;28;20095;-76
2022/11/14 04:58:23;;;;;;;40.15;26.05;;;6.90;99.90;;;;;;5004927;28;20042;-76
2022/11/14 05:00:48;;;;;;;34.42;21.02;;;6.90;99.90;;;;;;5004800;28;20425;-76
2022/11/14 05:03:14;;;;;;;33.97;21.00;;;6.90;99.90;;;;;;5005803;28;20155;-76
2022/11/14 05:05:40;;;;;;;37.63;21.80;;;6.90;99.90;;;;;;5024783;28;20555;-76
2022/11/14 05:08:06;;;;;;;33.17;22.38;;;6.90;99.90;;;;;;5007168;28;20125;-76
2022/11/14 05:10:31;;;;;;;38.80;20.75;;;6.90;99.90;;;;;;5002708;28;20518;-76
2022/11/14 05:12:57;;;;;;;36.80;24.17;;;6.90;99.90;;;;;;5004138;28;20053;-76
2022/11/14 05:15:23;;;;;;;33.60;21.30;;;6.80;99.90;;;;;;5004608;28;20127;-76
2022/11/14 05:17:48;;;;;;;37.67;21.80;;;6.90;99.90;;;;;;5004960;28;20493;-76
2022/11/14 05:20:14;;;;;;;44.50;24.58;;;6.90;99.90;;;;;;5003425;28;20053;-76
2022/11/14 05:22:39;;;;;;;39.88;25.00;;;6.80;99.90;;;;;;5005081;28;20045;-77
2022/11/14 05:25:06;;;;;;;37.30;26.20;;;6.80;99.90;;;;;;5000376;28;20053;-76
2022/11/14 05:27:31;;;;;;;37.33;24.10;;;6.80;99.90;;;;;;4985291;28;20034;-76
2022/11/14 05:29:57;;;;;;;38.97;23.67;;;6.80;99.90;;;;;;4984263;28;20055;-76
2022/11/14 05:32:23;;;;;;;37.55;21.92;;;6.80;99.90;;;;;;4984850;28;20061;-76
2022/11/14 05:34:48;;;;;;;31.17;20.02;;;6.80;99.90;;;;;;4985382;28;20404;-76
2022/11/14 05:37:14;;;;;;;32.90;21.85;;;6.80;99.90;;;;;;4996547;28;20096;-77
2022/11/14 05:39:39;;;;;;;42.63;23.92;;;6.80;99.90;;;;;;5005691;28;20048;-76
2022/11/14 05:42:05;;;;;;;39.85;19.85;;;6.80;99.90;;;;;;5023128;28;20053;-75
2022/11/14 05:44:31;;;;;;;29.60;18.98;;;6.80;99.90;;;;;;5023733;28;20051;-76
2022/11/14 05:46:56;;;;;;;39.50;23.73;;;6.80;99.90;;;;;;5023389;28;20049;-76
2022/11/14 05:49:22;;;;;;;28.65;20.27;;;6.80;99.90;;;;;;5023612;28;20041;-76
2022/11/14 05:51:48;;;;;;;31.83;20.60;;;6.70;99.90;;;;;;5023213;28;20224;-76
2022/11/14 05:54:13;;;;;;;41.00;21.73;;;6.80;99.90;;;;;;5022667;28;20041;-77
2022/11/14 05:56:39;;;;;;;37.63;23.77;;;6.70;99.90;;;;;;5022640;28;20041;-76
2022/11/14 05:59:04;;;;;;;29.45;18.55;;;6.70;99.90;;;;;;5023491;28;20056;-77
2022/11/14 06:01:30;;;;;;;33.55;21.33;;;6.70;99.90;;;;;;5018895;28;20077;-76
2022/11/14 06:03:56;;;;;;;29.80;21.02;;;6.70;99.90;;;;;;5002815;28;20096;-75
2022/11/14 06:06:21;;;;;;;29.70;21.95;;;6.70;99.90;;;;;;5004219;28;20610;-76
2022/11/14 06:08:48;;;;;;;45.22;22.80;;;6.70;99.90;;;;;;5003233;28;20128;-76
2022/11/14 06:11:17;;;;;;;38.78;22.38;;;6.70;99.90;;;;;;5003558;28;20041;-77
2022/11/14 06:13:43;;;;;;;45.22;21.63;;;6.60;99.90;;;;;;5013538;28;20069;-75
2022/11/14 06:16:15;;;;;;;39.80;22.25;;;6.60;99.90;;;;;;5003562;28;20060;-75
2022/11/14 06:18:42;;;;;;;37.67;21.00;;;6.60;99.90;;;;;;5006835;28;20812;-75
2022/11/14 06:21:14;;;;;;;38.28;21.95;;;6.60;99.90;;;;;;5013109;28;20276;-75
2022/11/14 06:23:40;;;;;;;32.08;18.90;;;6.70;99.90;;;;;;5006054;28;20088;-75
2022/11/14 06:26:11;;;;;;;34.33;20.15;;;6.60;99.90;;;;;;5003743;28;20049;-75
2022/11/14 06:28:37;;;;;;;31.60;19.53;;;6.60;99.90;;;;;;5003156;28;20060;-76
2022/11/14 06:31:03;;;;;;;31.02;21.70;;;6.60;99.90;;;;;;4984711;28;20037;-77
2022/11/14 06:33:33;;;;;;;39.08;20.95;;;6.70;99.90;;;;;;5003066;28;20124;-77
2022/11/14 06:36:00;;;;;;;34.33;23.65;;;6.70;99.90;;;;;;5000779;28;20037;-77
2022/11/14 06:38:27;;;;;;;33.72;19.80;;;6.70;99.90;;;;;;5002406;28;20107;-77
2022/11/14 06:40:59;;;;;;;33.95;22.85;;;6.70;99.90;;;;;;5002061;28;20030;-77
2022/11/14 06:43:25;;;;;;;26.73;20.50;;;6.60;99.90;;;;;;4999111;28;20052;-77
2022/11/14 06:45:53;;;;;;;41.70;23.30;;;6.60;99.90;;;;;;5003245;28;20034;-78
2022/11/14 06:48:18;;;;;;;47.70;24.38;;;6.70;99.90;;;;;;5002522;28;20049;-79
2022/11/14 06:50:50;;;;;;;37.95;25.75;;;6.60;99.90;;;;;;5002663;28;20526;-80
2022/11/14 06:53:16;;;;;;;42.38;24.30;;;6.60;99.90;;;;;;5002101;28;20046;-79
2022/11/14 06:55:42;;;;;;;35.35;20.63;;;6.70;99.90;;;;;;5001980;28;20400;-81
2022/11/14 06:58:07;;;;;;;50.67;24.20;;;6.60;99.90;;;;;;5000927;28;20037;-82
2022/11/14 07:00:33;;;;;;;52.33;21.98;;;6.60;99.90;;;;;;5003057;28;20092;-79
2022/11/14 07:02:58;;;;;;;33.03;22.10;;;6.60;99.90;;;;;;5001107;28;20085;-79
2022/11/14 07:05:24;;;;;;;34.90;23.40;;;6.60;99.90;;;;;;5002632;28;20042;-79
2022/11/14 07:07:49;;;;;;;35.40;21.70;;;6.70;99.90;;;;;;5005536;28;20452;-79
2022/11/14 07:10:15;;;;;;;38.28;20.25;;;6.70;99.90;;;;;;5003287;28;20062;-79
2022/11/14 07:12:41;;;;;;;35.80;23.15;;;6.70;99.90;;;;;;5009282;28;20559;-79
2022/11/14 07:15:07;;;;;;;33.67;20.77;;;6.70;99.90;;;;;;5023597;28;20270;-79
2022/11/14 07:17:35;;;;;;;34.90;19.65;;;6.70;99.90;;;;;;5016189;28;20073;-79
2022/11/14 07:20:00;;;;;;;33.55;22.05;;;6.70;99.90;;;;;;5004991;28;20552;-79
2022/11/14 07:22:26;;;;;;;36.22;21.25;;;6.70;99.90;;;;;;5007198;28;20118;-79
2022/11/14 07:24:51;;;;;;;40.03;26.05;;;6.70;99.90;;;;;;5007214;28;20072;-78
2022/11/14 07:27:17;;;;;;;40.58;24.25;;;6.70;99.90;;;;;;5004326;28;20064;-79
2022/11/14 07:29:42;;;;;;;32.13;22.33;;;6.70;99.90;;;;;;5021997;28;20089;-78
2022/11/14 07:32:08;;;;;;;40.63;20.77;;;6.80;99.90;;;;;;5018236;28;20050;-78
2022/11/14 07:34:33;;;;;;;42.30;21.67;;;6.70;99.90;;;;;;5004708;28;20049;-78
2022/11/14 07:36:59;;;;;;;41.53;21.05;;;6.70;99.90;;;;;;5004404;28;20112;-80
2022/11/14 07:39:25;;;;;;;39.70;22.67;;;6.70;99.90;;;;;;5006824;28;20049;-81
2022/11/14 07:41:50;;;;;;;32.92;24.00;;;6.80;99.90;;;;;;5000572;28;20085;-81
2022/11/14 07:44:16;;;;;;;33.45;21.55;;;6.70;99.90;;;;;;5005620;28;20065;-81
2022/11/14 07:46:41;;;;;;;39.13;25.45;;;6.70;99.90;;;;;;5005543;28;20050;-79
2022/11/14 07:49:07;;;;;;;45.55;22.95;;;6.80;99.90;;;;;;4986667;28;20042;-76
2022/11/14 07:51:32;;;;;;;40.83;22.48;;;6.80;99.90;;;;;;4991867;28;20117;-82
2022/11/14 07:53:58;;;;;;;30.05;21.02;;;6.80;99.90;;;;;;5016806;28;20038;-77
2022/11/14 07:56:25;;;;;;;34.63;20.42;;;6.80;99.90;;;;;;5005036;28;20037;-74
2022/11/14 07:58:51;;;;;;;35.63;19.88;;;6.80;99.90;;;;;;5023850;28;20044;-75
2022/11/14 08:01:16;;;;;;;37.42;21.35;;;6.70;99.90;;;;;;5010596;28;20041;-76
2022/11/14 08:03:42;;;;;;;33.80;22.60;;;6.70;99.90;;;;;;5010132;28;20128;-75
2022/11/14 08:06:10;;;;;;;40.60;19.98;;;6.70;99.90;;;;;;5013437;28;20181;-76
2022/11/14 08:08:36;;;;;;;37.28;20.73;;;6.70;99.90;;;;;;5001371;28;20054;-79
2022/11/14 08:11:02;;;;;;;34.10;22.02;;;6.70;99.90;;;;;;5004702;28;20045;-75
2022/11/14 08:13:28;;;;;;;33.92;21.35;;;6.70;99.90;;;;;;5000990;28;20034;-78
2022/11/14 08:15:54;;;;;;;28.98;21.90;;;6.70;99.90;;;;;;4990783;28;20084;-78
2022/11/14 08:18:20;;;;;;;32.95;21.88;;;6.70;99.90;;;;;;5006260;28;20362;-81
2022/11/14 08:20:46;;;;;;;33.80;21.25;;;6.70;99.90;;;;;;5006639;28;20052;-78
2022/11/14 08:23:12;;;;;;;35.38;22.02;;;6.70;99.90;;;;;;5016056;28;20047;-79
2022/11/14 08:25:38;;;;;;;42.15;22.48;;;6.70;99.90;;;;;;4996570;28;20144;-80
2022/11/14 08:28:04;;;;;;;37.50;20.50;;;6.70;99.90;;;;;;4990064;28;20065;-75
2022/11/14 08:30:30;;;;;;;24.27;18.30;;;6.70;99.90;;;;;;5019532;28;20049;-76
2022/11/14 08:32:55;;;;;;;36.53;23.35;;;6.70;99.90;;;;;;5006184;28;20284;-77
2022/11/14 08:35:22;;;;;;;38.05;23.00;;;6.70;99.90;;;;;;5004765;28;20045;-77
2022/11/14 08:37:47;;;;;;;35.30;23.30;;;6.70;99.90;;;;;;5008694;28;20072;-77
2022/11/14 08:40:13;;;;;;;29.70;20.35;;;6.70;99.90;;;;;;5003909;28;20049;-77
2022/11/14 08:42:39;;;;;;;28.95;19.45;;;6.70;99.90;;;;;;5005114;28;20030;-77
2022/11/14 08:45:05;;;;;;;39.47;21.90;;;6.70;99.90;;;;;;5003458;28;20049;-78
2022/11/14 08:47:30;;;;;;;38.00;25.00;;;6.70;99.90;;;;;;5007606;28;20045;-78
2022/11/14 08:49:56;;;;;;;42.80;20.95;;;6.70;99.90;;;;;;4999794;28;20408;-77
2022/11/14 08:52:22;;;;;;;41.05;24.42;;;6.80;99.90;;;;;;5006780;28;20100;-78
2022/11/14 08:54:47;;;;;;;31.80;20.65;;;6.80;99.90;;;;;;5020575;28;20040;-78
2022/11/14 08:57:14;;;;;;;38.92;22.40;;;6.80;99.90;;;;;;4992827;28;20041;-76
2022/11/14 08:59:40;;;;;;;40.50;24.52;;;6.80;99.90;;;;;;4997689;28;20559;-76
2022/11/14 09:02:08;;;;;;;32.17;22.27;;;6.80;99.90;;;;;;4999455;28;20104;-76
2022/11/14 09:04:34;;;;;;;33.60;24.30;;;6.80;99.90;;;;;;5008144;28;20042;-75
2022/11/14 09:06:59;;;;;;;47.47;21.35;;;6.80;99.90;;;;;;5004324;28;20030;-77
2022/11/14 09:09:25;;;;;;;33.58;21.33;;;6.80;99.90;;;;;;5014677;28;20539;-76
2022/11/14 09:11:50;;;;;;;33.55;22.65;;;6.80;99.90;;;;;;5004497;28;20045;-76
2022/11/14 09:14:16;;;;;;;40.50;24.67;;;6.80;99.90;;;;;;5005437;28;20042;-76
2022/11/14 09:16:42;;;;;;;34.42;22.02;;;6.80;99.90;;;;;;5004451;28;20034;-76
2022/11/14 09:19:07;;;;;;;38.05;23.98;;;6.80;99.90;;;;;;5005521;28;20042;-77
2022/11/14 09:21:33;;;;;;;30.08;19.60;;;6.80;99.90;;;;;;5006176;28;20472;-78
2022/11/14 09:23:58;;;;;;;38.05;23.20;;;6.80;99.90;;;;;;5010689;28;20049;-78
2022/11/14 09:26:24;;;;;;;36.83;22.20;;;6.80;99.90;;;;;;4999686;28;20041;-77
2022/11/14 09:28:49;;;;;;;34.40;23.75;;;6.80;99.90;;;;;;5003788;28;20293;-77
2022/11/14 09:31:15;;;;;;;35.33;23.05;;;6.80;99.90;;;;;;5002254;28;20042;-77
2022/11/14 09:33:40;;;;;;;38.75;23.42;;;6.80;99.90;;;;;;5004704;28;20053;-77
2022/11/14 09:36:09;;;;;;;37.45;23.98;;;6.80;99.90;;;;;;5004379;28;20128;-77
2022/11/14 09:38:35;;;;;;;44.58;24.65;;;6.80;99.90;;;;;;5002006;28;20096;-77
2022/11/14 09:41:24;;;;;;;37.22;22.42;;;6.80;99.90;;;;;;5006036;28;20494;-77
2022/11/14 09:44:22;;;;;;;43.03;23.90;;;6.90;99.90;;;;;;5004489;28;20050;-77
2022/11/14 09:47:06;;;;;;;36.55;19.48;;;7.00;99.90;;;;;;5001902;28;20057;-77
2022/11/14 09:49:37;;;;;;;33.65;22.27;;;7.00;99.90;;;;;;4992897;28;20086;-77
2022/11/14 09:52:34;;;;;;;38.97;24.50;;;7.00;99.90;;;;;;4997484;28;20048;-77
2022/11/14 09:55:22;;;;;;;38.67;21.83;;;7.00;99.90;;;;;;4985948;28;20038;-79
2022/11/14 09:57:48;;;;;;;33.85;20.60;;;7.00;99.90;;;;;;4998299;28;20255;-75
2022/11/14 10:00:15;;;;;;;34.33;21.42;;;7.00;99.90;;;;;;5006256;28;20040;-76
2022/11/14 10:03:03;;;;;;;43.42;22.35;;;7.00;99.90;;;;;;5001982;28;20136;-77
2022/11/14 10:05:44;;;;;;;47.08;21.42;;;7.00;99.90;;;;;;4995307;28;20096;-78
2022/11/14 10:08:29;;;;;;;33.65;22.30;;;7.10;99.90;;;;;;5002723;28;20037;-80
2022/11/14 10:11:00;;;;;;;28.05;19.65;;;7.10;99.90;;;;;;4985348;28;20056;-78
2022/11/14 10:13:39;;;;;;;34.85;21.98;;;7.10;99.90;;;;;;5002614;28;20042;-76
2022/11/14 10:16:25;;;;;;;38.47;22.95;;;7.10;99.90;;;;;;5003887;28;20081;-76
2022/11/14 10:19:04;;;;;;;31.42;21.90;;;7.10;99.90;;;;;;5000489;28;20288;-80
2022/11/14 10:21:53;;;;;;;38.33;18.73;;;7.20;99.90;;;;;;5001744;28;20131;-77
2022/11/14 10:24:37;;;;;;;38.38;19.30;;;7.20;99.90;;;;;;5007218;28;20049;-77
2022/11/14 10:27:21;;;;;;;32.60;19.40;;;7.20;99.90;;;;;;5003333;28;20042;-76
2022/11/14 10:30:04;;;;;;;32.40;21.08;;;7.20;99.90;;;;;;5005461;28;20045;-76
2022/11/14 10:32:56;;;;;;;26.25;18.50;;;7.20;99.90;;;;;;5016340;28;20030;-77
2022/11/14 10:35:40;;;;;;;38.42;23.02;;;7.30;99.90;;;;;;5002093;28;20061;-75
2022/11/14 10:38:05;;;;;;;30.40;19.10;;;7.30;99.90;;;;;;4985461;28;20085;-76
2022/11/14 10:40:41;;;;;;;36.92;21.55;;;7.30;99.90;;;;;;5003978;28;20077;-75
2022/11/14 10:43:32;;;;;;;35.45;17.80;;;7.30;99.90;;;;;;4983525;28;20045;-76
2022/11/14 10:46:24;;;;;;;33.65;17.67;;;7.40;99.90;;;;;;5000513;28;20045;-76
2022/11/14 10:48:50;;;;;;;31.23;20.05;;;7.40;99.90;;;;;;5011330;28;20061;-76
2022/11/14 10:51:32;;;;;;;32.22;19.88;;;7.40;99.90;;;;;;5017297;28;20069;-75
2022/11/14 10:54:08;;;;;;;25.23;18.85;;;7.40;99.90;;;;;;4981529;28;20125;-76
2022/11/14 10:56:34;;;;;;;25.15;17.30;;;7.40;99.90;;;;;;5005527;28;20045;-76
2022/11/14 10:59:00;;;;;;;25.95;17.65;;;7.40;99.90;;;;;;5002489;28;20034;-76
2022/11/14 11:01:38;;;;;;;31.20;19.70;;;7.40;99.90;;;;;;5012886;28;20037;-76
2022/11/14 11:04:18;;;;;;;32.95;19.05;;;7.50;99.90;;;;;;4983529;28;20103;-75
2022/11/14 11:06:44;;;;;;;35.22;16.23;;;7.50;99.90;;;;;;5002964;28;20113;-77
2022/11/14 11:12:02;;;;;;;33.10;18.88;;;7.60;99.90;;;;;;4986473;28;20053;-77
2022/11/14 11:14:28;;;;;;;35.80;16.38;;;7.50;99.90;;;;;;5008895;28;20486;-77
2022/11/14 11:17:26;;;;;;;28.05;18.08;;;7.60;99.90;;;;;;5001701;28;20038;-77
2022/11/14 11:19:52;;;;;;;37.25;17.67;;;7.60;99.90;;;;;;4990302;28;20510;-77
2022/11/14 11:22:37;;;;;;;27.48;17.85;;;7.60;99.90;;;;;;4999772;28;20037;-77
2022/11/14 11:25:27;;;;;;;25.98;18.02;;;7.60;99.90;;;;;;4998025;28;20050;-77
2022/11/14 11:28:12;;;;;;;53.35;20.45;;;7.60;99.90;;;;;;4999527;28;20042;-76
2022/11/14 11:30:39;;;;;;;34.35;18.42;;;7.70;99.90;;;;;;4995499;28;20121;-76
2022/11/14 11:33:20;;;;;;;47.83;19.05;;;7.70;99.90;;;;;;5000757;28;20207;-78
2022/11/14 11:35:49;;;;;;;26.95;17.58;;;7.70;99.90;;;;;;4998853;28;20637;-79
2022/11/14 11:38:16;;;;;;;29.08;18.35;;;7.70;99.90;;;;;;4997521;28;20062;-79
2022/11/14 11:40:49;;;;;;;41.08;18.45;;;7.70;99.90;;;;;;5000502;28;20080;-79
2022/11/14 11:43:26;;;;;;;30.88;19.42;;;7.70;99.90;;;;;;4999890;28;20475;-79
2022/11/14 11:45:54;;;;;;;36.85;20.38;;;7.70;99.90;;;;;;5000205;28;20115;-78
2022/11/14 11:48:22;;;;;;;31.85;17.27;;;7.70;99.90;;;;;;4995959;28;20081;-78
2022/11/14 11:50:48;;;;;;;37.50;18.88;;;7.70;99.90;;;;;;4999349;28;20065;-75
2022/11/14 11:53:30;;;;;;;28.52;18.85;;;7.70;99.90;;;;;;5001735;28;20037;-73
2022/11/14 11:56:03;;;;;;;29.13;19.75;;;7.70;99.90;;;;;;5007315;28;20033;-73
2022/11/14 11:58:36;;;;;;;33.40;18.33;;;7.70;99.90;;;;;;5004787;28;20316;-73
2022/11/14 12:01:01;;;;;;;23.58;17.10;;;7.70;99.90;;;;;;5003426;28;20046;-74
2022/11/14 12:03:27;;;;;;;30.63;17.30;;;7.80;99.90;;;;;;5003806;28;20041;-73
2022/11/14 12:06:12;;;;;;;34.20;18.55;;;7.80;99.90;;;;;;5003918;28;20042;-73
2022/11/14 12:08:59;;;;;;;22.10;17.50;;;7.80;99.90;;;;;;5001834;28;20326;-73
2022/11/14 12:11:26;;;;;;;34.08;21.33;;;7.80;99.90;;;;;;5006873;28;20126;-73
2022/11/14 12:13:57;;;;;;;30.63;18.48;;;7.80;99.90;;;;;;5005582;28;20117;-73
2022/11/14 12:16:35;;;;;;;27.42;17.75;;;7.80;99.90;;;;;;5005511;28;20436;-72
2022/11/14 12:19:25;;;;;;;31.90;18.40;;;7.80;99.90;;;;;;5008691;28;20037;-73
2022/11/14 12:22:16;;;;;;;32.28;18.92;;;7.90;99.90;;;;;;5005954;28;20129;-73
2022/11/14 12:25:00;;;;;;;29.88;18.08;;;7.90;99.90;;;;;;5003140;28;20056;-73
2022/11/14 12:27:38;;;;;;;23.88;16.77;;;7.90;99.90;;;;;;4992321;28;20128;-73
2022/11/14 12:30:03;;;;;;;30.92;17.77;;;7.90;99.90;;;;;;5004019;28;20841;-74
2022/11/14 12:32:36;;;;;;;27.60;18.88;;;7.90;99.90;;;;;;5005659;28;20046;-73
2022/11/14 12:35:06;;;;;;;;;;;7.90;99.90;;;;;;5004382;28;20540;-73
2022/11/14 12:37:42;;;;;;;46.10;17.98;;;7.90;99.90;;;;;;5005241;28;19921;-73
2022/11/14 12:40:20;;;;;;;29.60;16.58;;;8.00;99.90;;;;;;5002756;28;20112;-73
2022/11/14 12:42:47;;;;;;;26.77;18.98;;;8.00;99.90;;;;;;5005249;28;20112;-74
2022/11/14 12:45:34;;;;;;;28.52;20.42;;;8.00;99.90;;;;;;5005986;28;20046;-73
2022/11/14 12:48:19;;;;;;;25.70;16.20;;;8.00;99.90;;;;;;5002872;28;20042;-73
2022/11/14 12:50:44;;;;;;;26.00;15.50;;;8.00;99.90;;;;;;5004773;28;20050;-73